Time;durP1;ratioP1;P1;durP2;ratioP2;P2;SDS_P1;SDS_P2;PMS_P1;PMS_P2;Temp;Humidity;BMP_temperature;BMP_pressure;BME280_temperature;BME280_humidity;BME280_pressure;Samples;Min_cycle;Max_cycle;Signal;HPM_P1;HPM_P2
2021/11/19 00:01:13;;;;;;;;;37.25;27.00;;;;;10.30;86.97;102920.91;5080885;27;45826;-61
2021/11/19 00:03:39;;;;;;;;;34.25;30.00;;;;;10.28;87.39;102914.84;5081216;27;45257;-60
2021/11/19 00:06:05;;;;;;;;;32.25;26.25;;;;;10.28;87.30;102920.03;5081048;27;46348;-61
2021/11/19 00:08:31;;;;;;;;;38.00;30.00;;;;;10.27;87.03;102923.50;5073962;28;45930;-60
2021/11/19 00:11:00;;;;;;;;;39.50;29.25;;;;;10.26;86.90;102932.16;5081187;27;45376;-61
2021/11/19 00:13:28;;;;;;;;;36.75;25.50;;;;;10.26;86.83;102930.44;5080599;27;45458;-61
2021/11/19 00:15:54;;;;;;;;;36.00;28.50;;;;;10.27;86.64;102928.69;5079558;27;48032;-60
2021/11/19 00:18:20;;;;;;;;;29.25;26.50;;;;;10.28;86.91;102930.44;5081962;27;46556;-60
2021/11/19 00:20:46;;;;;;;;;40.00;27.25;;;;;10.29;86.61;102911.38;5079811;27;45448;-60
2021/11/19 00:23:11;;;;;;;;;31.25;24.50;;;;;10.29;86.69;102914.84;5080269;27;45553;-61
2021/11/19 00:25:38;;;;;;;;;32.00;24.50;;;;;10.28;86.53;102912.25;5080971;28;46511;-60
2021/11/19 00:28:05;;;;;;;;;38.00;31.25;;;;;10.29;86.59;102914.84;5080508;27;45367;-61
2021/11/19 00:30:32;;;;;;;;;30.00;26.50;;;;;10.34;86.76;102907.09;5080811;27;45209;-60
2021/11/19 00:32:57;;;;;;;;;41.00;28.25;;;;;10.39;86.27;102904.53;5080669;27;45237;-61
2021/11/19 00:35:23;;;;;;;;;25.75;24.00;;;;;10.41;86.51;102913.19;5079721;28;46704;-61
2021/11/19 00:37:52;;;;;;;;;26.75;21.25;;;;;10.38;86.58;102908.84;5077995;27;45584;-61
2021/11/19 00:40:23;;;;;;;;;37.25;24.00;;;;;10.41;86.05;102906.31;5071729;27;45522;-61
2021/11/19 00:42:49;;;;;;;;;27.50;22.25;;;;;10.40;85.66;102908.84;5080236;27;45233;-60
2021/11/19 00:45:15;;;;;;;;;30.50;23.50;;;;;10.41;86.21;102911.50;5085326;27;46339;-60
2021/11/19 00:47:40;;;;;;;;;27.75;22.75;;;;;10.44;86.11;102900.25;5067423;27;45247;-61
2021/11/19 00:50:08;;;;;;;;;30.50;24.50;;;;;10.49;86.02;102906.34;5080656;27;45856;-60
2021/11/19 00:52:34;;;;;;;;;28.25;23.00;;;;;10.49;85.60;102911.53;5081643;27;45472;-60
2021/11/19 00:54:59;;;;;;;;;26.25;23.75;;;;;10.44;85.43;102911.50;5061201;28;46240;-60
2021/11/19 00:57:25;;;;;;;;;31.50;22.75;;;;;10.44;85.69;102903.72;5079502;27;45438;-60
2021/11/19 00:59:50;;;;;;;;;35.50;25.25;;;;;10.46;85.18;102908.94;5077977;27;45374;-60
2021/11/19 01:02:23;;;;;;;;;28.75;26.00;;;;;10.43;85.21;102914.97;5074372;27;45930;-60
2021/11/19 01:04:49;;;;;;;;;25.25;21.75;;;;;10.40;85.50;102904.53;5073915;27;46131;-60
2021/11/19 01:07:18;;;;;;;;;26.75;22.75;;;;;10.35;85.54;102904.50;5078055;28;45951;-59
2021/11/19 01:09:48;;;;;;;;;39.50;30.25;;;;;10.34;85.28;102909.69;5078054;28;45468;-59
2021/11/19 01:12:16;;;;;;;;;26.25;24.25;;;;;10.38;85.62;102902.78;5077541;27;45610;-58
2021/11/19 01:14:46;;;;;;;;;29.75;26.25;;;;;10.43;85.43;102896.78;5074582;27;46709;-58
2021/11/19 01:17:16;;;;;;;;;25.50;21.00;;;;;10.46;85.54;102896.81;5071438;28;45356;-58
2021/11/19 01:19:47;;;;;;;;;26.50;21.00;;;;;10.45;85.50;102891.59;5081610;27;45422;-58
2021/11/19 01:22:22;;;;;;;;;31.25;22.50;;;;;10.44;85.18;102884.66;5070894;27;45563;-57
2021/11/19 01:24:48;;;;;;;;;29.50;25.50;;;;;10.46;85.51;102890.72;5079463;27;45539;-57
2021/11/19 01:27:15;;;;;;;;;23.75;20.25;;;;;10.48;85.21;102889.00;5079856;27;45379;-57
2021/11/19 01:29:40;;;;;;;;;33.25;26.25;;;;;10.52;85.20;102891.63;5082855;27;45539;-57
2021/11/19 01:32:09;;;;;;;;;30.00;19.50;;;;;10.56;85.17;102888.19;5072536;28;45176;-57
2021/11/19 01:34:36;;;;;;;;;28.50;24.00;;;;;10.59;85.17;102883.00;5079702;27;46183;-58
2021/11/19 01:37:02;;;;;;;;;32.00;21.50;;;;;10.61;84.53;102881.31;5079240;27;45754;-58
2021/11/19 01:39:29;;;;;;;;;22.75;22.75;;;;;10.61;84.54;102889.13;5079738;27;45276;-57
2021/11/19 01:41:58;;;;;;;;;25.75;21.75;;;;;10.60;84.50;102884.75;5079567;27;45362;-58
2021/11/19 01:44:27;;;;;;;;;26.75;20.50;;;;;10.62;84.65;102885.66;5080719;27;45560;-58
2021/11/19 01:46:55;;;;;;;;;27.00;24.25;;;;;10.59;84.60;102888.22;5071375;27;45348;-58
2021/11/19 01:49:21;;;;;;;;;28.75;23.50;;;;;10.52;84.32;102886.44;5079635;27;45313;-58
2021/11/19 01:51:56;;;;;;;;;25.75;22.50;;;;;10.49;84.61;102885.56;5079809;27;45316;-58
2021/11/19 01:54:26;;;;;;;;;25.75;22.50;;;;;10.53;84.53;102885.56;5079425;27;46191;-58
2021/11/19 01:57:03;;;;;;;;;38.50;25.75;;;;;10.57;84.28;102889.06;5079511;27;45472;-58
2021/11/19 01:59:48;;;;;;;;;33.75;21.75;;;;;10.56;84.70;102876.91;5078685;28;45310;-58
2021/11/19 02:02:18;;;;;;;;;26.25;22.25;;;;;10.59;84.89;102884.75;5079536;27;45348;-58
2021/11/19 02:04:49;;;;;;;;;29.25;21.50;;;;;10.61;84.79;102883.91;5079403;27;45216;-58
2021/11/19 02:07:31;;;;;;;;;27.00;22.50;;;;;10.64;84.61;102877.88;5079624;27;45402;-57
2021/11/19 02:10:01;;;;;;;;;29.00;23.75;;;;;10.66;84.48;102874.41;5079382;28;45503;-58
2021/11/19 02:12:57;;;;;;;;;22.00;19.00;;;;;10.71;84.37;102874.44;5079364;27;45402;-58
2021/11/19 02:15:30;;;;;;;;;32.25;22.00;;;;;10.72;83.85;102873.56;5079120;27;46602;-58
2021/11/19 02:18:02;;;;;;;;;32.50;23.50;;;;;10.73;84.06;102874.44;5079368;27;45429;-58
2021/11/19 02:20:34;;;;;;;;;27.75;23.25;;;;;10.74;83.79;102870.97;5078337;27;45297;-58
2021/11/19 02:23:06;;;;;;;;;26.25;24.00;;;;;10.76;84.04;102866.66;5078724;27;45450;-58
2021/11/19 02:25:38;;;;;;;;;26.00;18.25;;;;;10.76;83.84;102866.66;5081987;27;45392;-59
2021/11/19 02:28:09;;;;;;;;;32.00;25.00;;;;;10.78;83.80;102872.72;5082272;27;45826;-58
2021/11/19 02:30:50;;;;;;;;;32.75;21.50;;;;;10.78;83.82;102876.19;5083109;27;45439;-58
2021/11/19 02:33:17;;;;;;;;;29.25;22.75;;;;;10.79;83.37;102879.66;5082664;27;45349;-58
2021/11/19 02:36:05;;;;;;;;;37.50;26.25;;;;;10.79;83.49;102884.88;5082397;27;46130;-58
2021/11/19 02:38:55;;;;;;;;;28.00;22.00;;;;;10.80;83.76;102871.00;5074201;28;45846;-58
2021/11/19 02:41:24;;;;;;;;;31.25;23.00;;;;;10.82;83.57;102869.31;5082423;27;45306;-59
2021/11/19 02:43:56;;;;;;;;;28.00;24.00;;;;;10.82;83.47;102867.56;5082405;27;45228;-59
2021/11/19 02:46:30;;;;;;;;;30.50;23.75;;;;;10.86;83.29;102866.72;5076915;27;46521;-59
2021/11/19 02:48:56;;;;;;;;;23.25;20.00;;;;;10.89;83.45;102876.28;5080223;27;45343;-59
2021/11/19 02:51:23;;;;;;;;;29.50;22.50;;;;;10.88;83.51;102875.41;5082743;27;45344;-59
2021/11/19 02:53:49;;;;;;;;;29.50;19.50;;;;;10.90;83.22;102878.00;5081829;27;46086;-59
2021/11/19 02:56:16;;;;;;;;;26.00;21.25;;;;;10.92;83.26;102873.69;5082176;27;46348;-59
2021/11/19 02:58:45;;;;;;;;;26.50;20.75;;;;;10.94;83.38;102878.03;5081900;27;45425;-59
2021/11/19 03:01:14;;;;;;;;;32.50;23.25;;;;;10.95;82.92;102871.09;5082260;27;45248;-59
2021/11/19 03:03:45;;;;;;;;;34.75;22.00;;;;;10.95;83.08;102865.88;5082113;27;45296;-59
2021/11/19 03:06:12;;;;;;;;;27.25;20.50;;;;;10.93;83.17;102871.09;5082337;27;45428;-59
2021/11/19 03:08:37;;;;;;;;;29.75;22.00;;;;;10.93;83.28;102867.63;5081833;27;46049;-59
2021/11/19 03:11:04;;;;;;;;;33.50;23.50;;;;;10.95;82.82;102873.69;5082226;27;45165;-62
2021/11/19 03:13:33;;;;;;;;;34.75;26.00;;;;;10.95;82.81;102861.56;5081748;27;45459;-59
2021/11/19 03:15:59;;;;;;;;;33.00;25.00;;;;;10.96;82.96;102862.41;5081862;27;45430;-59
2021/11/19 03:18:28;;;;;;;;;31.00;24.00;;;;;10.98;83.21;102868.50;5083522;27;45303;-59
2021/11/19 03:20:59;;;;;;;;;33.75;23.50;;;;;10.98;82.97;102864.16;5071365;27;45441;-59
2021/11/19 03:23:26;;;;;;;;;27.25;22.25;;;;;10.95;82.83;102858.94;5073670;27;45374;-59
2021/11/19 03:25:51;;;;;;;;;34.25;24.75;;;;;10.90;82.57;102855.47;5074762;27;47005;-60
2021/11/19 03:28:20;;;;;;;;;25.25;22.50;;;;;10.88;83.05;102851.13;5073670;27;45494;-60
2021/11/19 03:30:49;;;;;;;;;28.75;21.75;;;;;10.88;82.94;102852.00;5076688;27;45350;-61
2021/11/19 03:33:17;;;;;;;;;29.75;22.00;;;;;10.89;82.85;102852.84;5081561;27;45456;-60
2021/11/19 03:35:43;;;;;;;;;33.75;23.25;;;;;10.91;83.15;102853.72;5080966;27;46076;-60
2021/11/19 03:38:09;;;;;;;;;28.00;25.00;;;;;10.92;82.79;102847.66;5080242;27;45185;-60
2021/11/19 03:40:40;;;;;;;;;26.75;21.75;;;;;10.94;82.62;102854.63;5081889;27;45450;-60
2021/11/19 03:43:10;;;;;;;;;26.00;23.75;;;;;10.95;82.80;102851.16;5081079;27;45298;-60
2021/11/19 03:45:39;;;;;;;;;36.00;23.50;;;;;10.98;82.89;102858.09;5088680;27;45399;-60
2021/11/19 03:48:06;;;;;;;;;29.25;26.75;;;;;10.99;82.59;102849.44;5087884;27;45850;-61
2021/11/19 03:50:47;;;;;;;;;27.25;23.25;;;;;11.01;82.74;102849.44;5083466;27;45310;-60
2021/11/19 03:53:14;;;;;;;;;30.75;23.00;;;;;11.02;82.55;102857.28;5081335;27;45522;-60
2021/11/19 03:55:46;;;;;;;;;31.00;26.00;;;;;11.03;82.78;102851.19;5067828;27;45337;-60
2021/11/19 03:58:13;;;;;;;;;30.50;25.25;;;;;11.04;82.84;102845.13;5073966;27;45311;-60
2021/11/19 04:00:43;;;;;;;;;35.00;28.50;;;;;11.04;82.52;102845.13;5077339;27;45569;-61
2021/11/19 04:03:10;;;;;;;;;29.50;22.25;;;;;11.05;82.32;102849.47;5080261;28;45497;-61
2021/11/19 04:05:36;;;;;;;;;35.00;24.75;;;;;11.05;82.49;102844.28;5076297;27;45426;-60
2021/11/19 04:08:02;;;;;;;;;37.00;27.50;;;;;11.06;82.58;102856.41;5080779;27;45402;-60
2021/11/19 04:10:28;;;;;;;;;22.25;21.00;;;;;11.08;82.50;102853.81;5079463;27;45255;-61
2021/11/19 04:12:53;;;;;;;;;30.50;22.75;;;;;11.07;82.51;102854.69;5080793;27;45312;-60
2021/11/19 04:15:25;;;;;;;;;27.00;25.00;;;;;11.08;82.52;102867.69;5080605;27;46175;-60
2021/11/19 04:17:50;;;;;;;;;26.50;22.00;;;;;11.07;82.53;102850.34;5080923;27;45284;-60
2021/11/19 04:20:17;;;;;;;;;32.75;26.50;;;;;11.08;82.38;102849.47;5080891;27;45554;-60
2021/11/19 04:22:43;;;;;;;;;30.75;24.00;;;;;11.08;82.29;102856.41;5080524;27;45453;-60
2021/11/19 04:25:12;;;;;;;;;27.75;23.25;;;;;11.06;82.47;102855.53;5080544;27;46298;-60
2021/11/19 04:27:38;;;;;;;;;29.50;23.00;;;;;11.08;82.42;102848.63;5080683;27;45815;-60
2021/11/19 04:30:06;;;;;;;;;36.00;26.50;;;;;11.07;82.23;102850.34;5080555;27;45239;-60
2021/11/19 04:32:31;;;;;;;;;29.50;25.50;;;;;11.02;82.12;102851.19;5080408;27;45437;-60
2021/11/19 04:34:56;;;;;;;;;33.75;24.00;;;;;11.00;82.50;102852.91;5080384;27;46613;-60
2021/11/19 04:37:23;;;;;;;;;31.50;24.75;;;;;10.98;82.69;102858.09;5080373;27;45331;-60
2021/11/19 04:39:48;;;;;;;;;31.50;25.25;;;;;10.97;82.40;102849.41;5080531;27;45408;-59
2021/11/19 04:42:14;;;;;;;;;35.75;25.50;;;;;10.97;82.28;102851.16;5080288;27;45580;-59
2021/11/19 04:44:40;;;;;;;;;26.00;22.50;;;;;10.98;82.40;102855.50;5083513;27;45308;-59
2021/11/19 04:47:05;;;;;;;;;34.00;25.00;;;;;10.94;82.31;102848.53;5069440;27;45396;-59
2021/11/19 04:49:31;;;;;;;;;29.00;24.00;;;;;10.89;82.39;102845.94;5078452;27;45601;-59
2021/11/19 04:51:57;;;;;;;;;25.00;23.00;;;;;10.77;82.32;102838.03;5078193;27;45761;-59
2021/11/19 04:54:24;;;;;;;;;29.75;23.50;;;;;10.74;82.64;102847.56;5077718;27;46192;-59
2021/11/19 04:56:51;;;;;;;;;29.00;26.25;;;;;10.72;82.79;102844.09;5073716;27;45324;-59
2021/11/19 04:59:19;;;;;;;;;28.50;24.00;;;;;10.70;82.92;102845.81;5075412;28;45619;-59
2021/11/19 05:01:48;;;;;;;;;23.50;23.25;;;;;10.71;82.95;102852.75;5077814;27;45445;-59
2021/11/19 05:04:15;;;;;;;;;31.75;24.25;;;;;10.72;83.08;102849.28;5072769;27;45707;-59
2021/11/19 05:06:40;;;;;;;;;37.25;26.50;;;;;10.72;83.21;102849.28;5077185;27;45738;-59
2021/11/19 05:09:10;;;;;;;;;29.50;24.00;;;;;10.75;83.21;102842.38;5080058;27;45473;-59
2021/11/19 05:11:47;;;;;;;;;24.75;22.75;;;;;10.78;82.93;102844.97;5073297;27;46655;-59
2021/11/19 05:14:13;;;;;;;;;29.75;24.75;;;;;10.79;82.92;102843.25;5073972;27;45494;-59
2021/11/19 05:16:39;;;;;;;;;34.25;26.25;;;;;10.83;82.98;102840.69;5079780;27;45343;-59
2021/11/19 05:19:05;;;;;;;;;30.25;24.00;;;;;10.84;82.98;102838.97;5079903;27;45287;-59
2021/11/19 05:21:31;;;;;;;;;26.00;19.25;;;;;10.86;82.58;102838.13;5065853;28;45294;-59
2021/11/19 05:23:57;;;;;;;;;23.50;20.50;;;;;10.90;82.64;102846.78;5079762;27;45363;-59
2021/11/19 05:26:23;;;;;;;;;28.25;22.75;;;;;10.93;82.56;102842.47;5083201;27;45336;-60
2021/11/19 05:28:49;;;;;;;;;28.50;23.25;;;;;10.95;82.70;102839.88;5079862;27;45330;-59
2021/11/19 05:31:16;;;;;;;;;33.50;22.00;;;;;10.97;82.46;102848.56;5079497;27;45460;-60
2021/11/19 05:33:42;;;;;;;;;35.25;25.50;;;;;10.98;82.72;102838.16;5079600;27;45407;-59
2021/11/19 05:36:09;;;;;;;;;29.00;23.50;;;;;11.01;82.65;102842.50;5079529;27;45236;-59
2021/11/19 05:38:37;;;;;;;;;31.00;24.25;;;;;11.05;82.55;102846.00;5079517;27;45297;-60
2021/11/19 05:41:05;;;;;;;;;29.50;22.75;;;;;11.06;82.53;102848.59;5066384;28;45453;-61
2021/11/19 05:43:34;;;;;;;;;28.75;25.50;;;;;11.08;82.14;102841.69;5079386;27;46208;-59
2021/11/19 05:46:00;;;;;;;;;30.00;21.75;;;;;11.10;82.20;102850.34;5078625;27;45250;-60
2021/11/19 05:48:25;;;;;;;;;27.25;22.25;;;;;11.12;82.11;102851.22;5074062;28;45242;-59
2021/11/19 05:50:51;;;;;;;;;27.50;20.50;;;;;11.11;82.06;102849.50;5079332;27;45213;-57
2021/11/19 05:53:16;;;;;;;;;28.25;23.25;;;;;11.10;82.07;102852.97;5079056;27;46052;-58
2021/11/19 05:55:45;;;;;;;;;27.00;24.75;;;;;11.11;81.88;102852.09;5079338;27;45344;-58
2021/11/19 05:58:12;;;;;;;;;30.75;23.75;;;;;11.12;82.18;102847.75;5079170;27;45307;-58
2021/11/19 06:00:42;;;;;;;;;26.25;21.50;;;;;11.11;81.84;102852.09;5082082;27;45285;-61
2021/11/19 06:03:09;;;;;;;;;27.50;25.00;;;;;11.12;82.07;102859.03;5082801;27;45545;-58
2021/11/19 06:05:35;;;;;;;;;32.00;23.25;;;;;11.12;81.90;102859.03;5078190;27;45281;-57
2021/11/19 06:08:01;;;;;;;;;33.50;25.00;;;;;11.11;81.83;102851.22;5078897;27;45252;-58
2021/11/19 06:10:29;;;;;;;;;35.00;27.00;;;;;11.10;81.39;102847.75;5079804;27;45434;-58
2021/11/19 06:13:10;;;;;;;;;32.25;25.50;;;;;11.08;81.35;102854.69;5078863;28;46258;-58
2021/11/19 06:15:40;;;;;;;;;24.00;21.00;;;;;11.04;81.64;102860.75;5074316;27;45303;-58
2021/11/19 06:18:10;;;;;;;;;21.25;19.25;;;;;10.98;81.43;102855.50;5081060;27;45366;-60
2021/11/19 06:20:46;;;;;;;;;32.00;24.25;;;;;10.94;81.91;102854.63;5083181;27;45603;-57
2021/11/19 06:23:21;;;;;;;;;26.75;21.25;;;;;10.96;81.80;102863.28;5081585;27;46427;-58
2021/11/19 06:25:48;;;;;;;;;27.25;22.75;;;;;10.96;81.65;102862.41;5082280;27;45438;-58
2021/11/19 06:28:19;;;;;;;;;26.00;21.50;;;;;10.96;81.61;102858.09;5071584;27;45366;-58
2021/11/19 06:30:45;;;;;;;;;27.25;20.00;;;;;10.98;81.48;102858.97;5082160;27;45410;-58
2021/11/19 06:33:10;;;;;;;;;29.50;25.00;;;;;10.97;81.49;102858.97;5080782;28;46209;-58
2021/11/19 06:35:36;;;;;;;;;35.00;22.50;;;;;10.97;81.65;102859.81;5082052;27;45303;-58
2021/11/19 06:38:01;;;;;;;;;27.50;23.50;;;;;10.97;81.28;102865.03;5081369;27;45242;-58
2021/11/19 06:40:30;;;;;;;;;32.75;24.75;;;;;10.97;81.60;102866.75;5082284;27;45434;-58
2021/11/19 06:42:57;;;;;;;;;31.75;22.00;;;;;10.92;81.43;102865.88;5081650;27;46997;-59
2021/11/19 06:45:24;;;;;;;;;29.25;23.50;;;;;10.96;81.51;102870.22;5086622;27;45287;-58
2021/11/19 06:47:50;;;;;;;;;32.50;20.25;;;;;10.96;81.50;102872.81;5071354;28;45438;-58
2021/11/19 06:50:19;;;;;;;;;29.00;24.00;;;;;10.95;81.92;102876.28;5082264;27;45329;-58
2021/11/19 06:52:44;;;;;;;;;27.50;23.25;;;;;10.95;81.55;102869.34;5081491;27;45548;-60
2021/11/19 06:55:10;;;;;;;;;22.50;17.00;;;;;10.98;81.47;102865.91;5081633;27;45449;-62
2021/11/19 06:57:36;;;;;;;;;26.25;19.75;;;;;11.01;81.58;102867.63;5081205;28;45415;-61
2021/11/19 07:00:24;;;;;;;;;28.75;21.75;;;;;11.01;81.75;102871.09;5081599;27;45554;-62
2021/11/19 07:02:50;;;;;;;;;28.50;22.00;;;;;11.02;81.78;102875.47;5074520;27;46405;-62
2021/11/19 07:05:17;;;;;;;;;23.25;21.50;;;;;11.03;81.95;102879.81;5081924;27;45315;-58
2021/11/19 07:07:43;;;;;;;;;28.75;23.75;;;;;11.05;81.48;102878.09;5081053;27;45285;-58
2021/11/19 07:10:10;;;;;;;;;33.00;25.25;;;;;11.07;81.54;102873.75;5081222;27;45497;-59
2021/11/19 07:12:36;;;;;;;;;21.75;18.25;;;;;11.08;81.30;102888.50;5080560;27;45523;-59
2021/11/19 07:15:04;;;;;;;;;22.75;19.50;;;;;11.04;81.29;102889.38;5081205;27;45475;-59
2021/11/19 07:17:30;;;;;;;;;30.25;23.50;;;;;11.00;81.23;102892.78;5081288;27;45368;-59
2021/11/19 07:19:56;;;;;;;;;30.75;24.25;;;;;10.98;81.20;102891.91;5076248;27;45557;-59
2021/11/19 07:22:21;;;;;;;;;29.75;25.00;;;;;10.97;81.33;102892.78;5080586;27;46069;-59
2021/11/19 07:24:47;;;;;;;;;27.25;22.00;;;;;11.02;81.06;102901.50;5081036;27;45184;-60
2021/11/19 07:27:12;;;;;;;;;25.75;20.50;;;;;11.05;81.08;102898.91;5081205;28;45437;-59
2021/11/19 07:29:39;;;;;;;;;28.25;23.50;;;;;11.08;81.16;102898.91;5080666;27;45173;-59
2021/11/19 07:32:05;;;;;;;;;21.25;20.25;;;;;11.12;81.11;102905.00;5081062;27;46138;-59
2021/11/19 07:34:31;;;;;;;;;28.50;23.75;;;;;11.17;81.23;102911.09;5080630;27;45968;-62
2021/11/19 07:36:57;;;;;;;;;24.75;23.25;;;;;11.20;81.33;102909.38;5080884;27;45291;-63
2021/11/19 07:39:22;;;;;;;;;31.50;25.75;;;;;11.21;80.96;102912.84;5080259;27;45472;-63
2021/11/19 07:41:48;;;;;;;;;27.00;24.75;;;;;11.23;81.06;102917.22;5080704;27;46463;-62
2021/11/19 07:44:14;;;;;;;;;28.25;21.00;;;;;11.27;80.97;102923.31;5080604;27;45383;-62
2021/11/19 07:46:40;;;;;;;;;33.00;24.75;;;;;11.27;80.72;102916.38;5074668;27;45291;-61
2021/11/19 07:49:06;;;;;;;;;26.00;22.75;;;;;11.26;80.96;102914.63;5080281;27;45536;-62
2021/11/19 07:51:35;;;;;;;;;30.25;20.25;;;;;11.30;80.90;102925.03;5081302;27;45364;-62
2021/11/19 07:54:01;;;;;;;;;28.00;22.50;;;;;11.33;80.95;102919.84;5066897;28;45732;-61
2021/11/19 07:56:32;;;;;;;;;28.75;28.25;;;;;11.38;80.56;102929.41;5074470;28;45359;-62
2021/11/19 07:59:06;;;;;;;;;34.50;26.50;;;;;11.41;80.44;102931.16;5080078;27;45225;-62
2021/11/19 08:01:32;;;;;;;;;27.00;21.75;;;;;11.41;80.57;102926.84;5079155;27;47906;-62
2021/11/19 08:03:58;;;;;;;;;27.50;21.25;;;;;11.45;80.43;102932.94;5080512;27;45214;-62
2021/11/19 08:06:26;;;;;;;;;33.75;25.75;;;;;11.47;80.51;102926.84;5080585;27;45253;-62
2021/11/19 08:08:53;;;;;;;;;28.50;26.25;;;;;11.53;80.53;102937.28;5080364;27;45342;-62
2021/11/19 08:11:19;;;;;;;;;29.50;26.00;;;;;11.54;80.22;102935.56;5080223;27;46876;-61
2021/11/19 08:13:45;;;;;;;;;26.75;23.75;;;;;11.56;80.32;102942.50;5080148;27;45764;-62
2021/11/19 08:16:12;;;;;;;;;27.00;20.75;;;;;11.61;80.22;102944.25;5080687;27;45337;-62
2021/11/19 08:18:45;;;;;;;;;28.50;21.50;;;;;11.65;80.14;102939.09;5080072;27;45354;-62
2021/11/19 08:21:11;;;;;;;;;32.00;25.75;;;;;11.67;80.24;102941.69;5075427;27;46430;-62
2021/11/19 08:23:40;;;;;;;;;29.25;21.50;;;;;11.67;79.98;102937.34;5074947;27;45369;-62
2021/11/19 08:26:08;;;;;;;;;40.25;27.00;;;;;11.65;80.15;102933.00;5076364;27;45347;-61
2021/11/19 08:28:34;;;;;;;;;38.25;28.00;;;;;11.57;80.15;102931.22;5079877;27;45282;-62
2021/11/19 08:31:02;;;;;;;;;32.50;26.25;;;;;11.58;80.02;102939.91;5079938;27;45383;-62
2021/11/19 08:33:28;;;;;;;;;32.00;22.50;;;;;11.63;80.23;102940.81;5077703;27;45192;-61
2021/11/19 08:35:53;;;;;;;;;28.25;24.75;;;;;11.65;79.86;102936.47;5077479;27;45270;-62
2021/11/19 08:38:23;;;;;;;;;38.00;28.00;;;;;11.69;79.73;102930.41;5079348;27;45800;-61
2021/11/19 08:40:50;;;;;;;;;33.50;26.50;;;;;11.75;79.75;102940.81;5079594;27;45371;-62
2021/11/19 08:43:20;;;;;;;;;35.00;26.75;;;;;11.79;79.57;102937.41;5079914;27;45441;-61
2021/11/19 08:45:48;;;;;;;;;29.00;22.50;;;;;11.85;79.25;102940.03;5080039;27;45295;-61
2021/11/19 08:48:14;;;;;;;;;31.75;22.50;;;;;11.89;79.63;102933.09;5073232;27;45338;-61
2021/11/19 08:50:42;;;;;;;;;32.75;27.50;;;;;11.95;79.49;102934.84;5079726;27;45464;-61
2021/11/19 08:53:11;;;;;;;;;23.25;21.75;;;;;11.96;79.07;102923.53;5074456;28;45227;-61
2021/11/19 08:55:46;;;;;;;;;31.00;25.25;;;;;12.01;78.90;102927.03;5066945;27;45345;-61
2021/11/19 08:58:13;;;;;;;;;30.25;27.50;;;;;12.02;79.02;102931.38;5079257;27;45435;-61
2021/11/19 09:00:40;;;;;;;;;33.25;23.75;;;;;12.08;79.08;102931.38;5079540;27;46278;-61
2021/11/19 09:03:07;;;;;;;;;30.75;25.50;;;;;12.14;79.07;102934.00;5083683;27;45356;-61
2021/11/19 09:05:35;;;;;;;;;36.25;30.25;;;;;12.17;78.56;102934.88;5068813;27;45443;-61
2021/11/19 09:08:02;;;;;;;;;39.75;33.50;;;;;12.19;78.56;102940.06;5077864;27;45432;-61
2021/11/19 09:10:29;;;;;;;;;43.75;34.50;;;;;12.23;78.56;102944.44;5079632;27;46369;-62
2021/11/19 09:12:54;;;;;;;;;26.75;23.00;;;;;12.26;78.54;102944.44;5079264;27;45783;-62
2021/11/19 09:15:23;;;;;;;;;39.00;32.25;;;;;12.30;78.34;102945.31;5079652;27;45480;-62
2021/11/19 09:18:03;;;;;;;;;36.75;29.25;;;;;12.34;77.98;102947.91;5079463;27;45325;-62
2021/11/19 09:21:00;;;;;;;;;34.25;29.00;;;;;12.37;77.61;102942.69;5068680;27;45351;-62
2021/11/19 09:23:29;;;;;;;;;32.25;28.25;;;;;12.39;77.69;102951.38;5074900;27;45350;-62
2021/11/19 09:25:59;;;;;;;;;40.25;32.00;;;;;12.41;77.68;102938.34;5078708;28;45700;-62
2021/11/19 09:28:27;;;;;;;;;44.25;34.25;;;;;12.39;77.71;102948.78;5079260;27;45333;-62
2021/11/19 09:30:57;;;;;;;;;45.50;37.75;;;;;12.41;77.80;102947.06;5079581;27;45481;-64
2021/11/19 09:33:24;;;;;;;;;49.50;37.75;;;;;12.42;77.70;102953.16;5079315;27;45457;-65
2021/11/19 09:35:51;;;;;;;;;58.25;44.25;;;;;12.43;77.99;102958.38;5078062;27;45402;-64
2021/11/19 09:38:19;;;;;;;;;64.50;49.00;;;;;12.41;78.39;102962.72;5079210;27;45235;-64
2021/11/19 09:40:56;;;;;;;;;60.50;47.50;;;;;12.37;78.14;102954.88;5082796;27;45303;-64
2021/11/19 09:43:46;;;;;;;;;50.75;38.00;;;;;12.36;78.14;102964.44;5071911;28;45307;-61
2021/11/19 09:46:44;;;;;;;;;52.75;36.75;;;;;12.38;78.03;102961.81;5085647;27;45487;-74
2021/11/19 09:49:36;;;;;;;;;54.25;40.00;;;;;12.41;77.51;102965.31;5076105;27;45312;-74
2021/11/19 09:52:43;;;;;;;;;59.75;44.75;;;;;12.44;77.92;102960.09;5076790;27;45559;-64
2021/11/19 09:55:27;;;;;;;;;60.75;44.75;;;;;12.44;77.87;102960.09;5075734;27;45303;-63
2021/11/19 09:58:17;;;;;;;;;57.00;43.75;;;;;12.40;77.79;102963.56;5071308;28;45445;-62
2021/11/19 10:01:11;;;;;;;;;51.00;37.75;;;;;12.43;77.89;102955.75;5079218;27;45244;-73
2021/11/19 10:04:13;;;;;;;;;52.75;41.25;;;;;12.48;78.09;102955.75;5079132;27;47692;-69
2021/11/19 10:06:53;;;;;;;;;56.50;44.00;;;;;12.48;77.79;102958.38;5077180;27;45193;-71
2021/11/19 10:09:24;;;;;;;;;55.00;40.00;;;;;12.49;77.89;102953.16;5072579;28;45562;-63
2021/11/19 10:12:07;;;;;;;;;55.75;40.50;;;;;12.49;77.75;102949.66;5079110;27;45435;-63
2021/11/19 10:14:42;;;;;;;;;47.75;39.25;;;;;12.51;77.88;102941.84;5077392;27;47287;-65
2021/11/19 10:17:29;;;;;;;;;49.75;40.00;;;;;12.60;78.13;102941.81;5078955;27;45230;-64
2021/11/19 10:20:08;;;;;;;;;53.75;41.25;;;;;12.66;78.13;102937.50;5071795;27;45722;-65
2021/11/19 10:22:40;;;;;;;;;54.75;43.50;;;;;12.67;77.83;102939.22;5078308;27;45487;-62
2021/11/19 10:25:27;;;;;;;;;55.75;41.00;;;;;12.68;77.43;102942.69;5068839;27;45593;-63
2021/11/19 10:27:55;;;;;;;;;54.50;42.25;;;;;12.68;77.81;102938.34;5075271;27;45365;-61
2021/11/19 10:30:30;;;;;;;;;51.50;41.00;;;;;12.68;77.92;102937.50;5069758;28;45253;-62
2021/11/19 10:33:03;;;;;;;;;50.50;40.00;;;;;12.70;78.04;102935.75;5077776;27;45255;-61
2021/11/19 10:35:40;;;;;;;;;54.00;41.25;;;;;12.76;77.98;102939.19;5077702;27;46577;-60
2021/11/19 10:38:44;;;;;;;;;56.50;40.00;;;;;12.78;77.45;102941.81;5068030;27;45822;-65
2021/11/19 10:41:34;;;;;;;;;53.00;43.25;;;;;12.83;77.55;102942.69;5066354;27;45338;-62
2021/11/19 10:44:02;;;;;;;;;53.50;43.00;;;;;12.84;77.36;102939.22;5067367;27;45363;-62
2021/11/19 10:46:59;;;;;;;;;50.75;39.25;;;;;12.85;77.30;102938.34;5071222;28;46239;-62
2021/11/19 10:49:49;;;;;;;;;51.75;37.75;;;;;12.87;77.43;102927.91;5081544;27;45816;-60
2021/11/19 10:52:45;;;;;;;;;55.00;42.25;;;;;12.93;77.20;102938.31;5081784;27;45343;-62
2021/11/19 10:55:55;;;;;;;;;54.75;41.50;;;;;12.91;77.00;102933.09;5081943;27;45358;-63
2021/11/19 10:58:41;;;;;;;;;59.00;41.50;;;;;12.93;77.26;102931.34;5067116;28;45586;-61
2021/11/19 11:01:25;;;;;;;;;51.25;40.00;;;;;12.96;76.90;102930.47;5073718;27;45361;-66
2021/11/19 11:03:57;;;;;;;;;55.50;40.00;;;;;12.97;77.07;102934.81;5072165;28;45417;-68
2021/11/19 11:06:53;;;;;;;;;55.50;40.50;;;;;13.00;76.65;102926.97;5069051;28;45232;-62
2021/11/19 11:09:24;;;;;;;;;54.25;39.00;;;;;13.02;76.62;102926.13;5074981;27;45341;-70
2021/11/19 11:12:15;;;;;;;;;51.00;40.75;;;;;13.00;76.59;102924.38;5080050;27;45407;-64
2021/11/19 11:14:46;;;;;;;;;51.25;38.50;;;;;13.01;76.39;102924.38;5066402;28;45399;-62
2021/11/19 11:17:28;;;;;;;;;47.75;37.00;;;;;13.04;76.46;102924.38;5067634;28;45318;-62
2021/11/19 11:19:58;;;;;;;;;54.25;38.25;;;;;13.07;76.40;102924.38;5067554;28;45318;-62
2021/11/19 11:22:27;;;;;;;;;53.75;38.75;;;;;13.09;75.88;102920.00;5070027;27;45857;-61
2021/11/19 11:24:55;;;;;;;;;50.50;40.00;;;;;13.09;76.20;102920.00;5070628;27;45240;-61